Time;durP1;ratioP1;P1;durP2;ratioP2;P2;SDS_P1;SDS_P2;PMS_P1;PMS_P2;Temp;Humidity;BMP_temperature;BMP_pressure;BME280_temperature;BME280_humidity;BME280_pressure;Samples;Min_cycle;Max_cycle;Signal;HPM_P1;HPM_P2
2022/06/27 00:01:09;;;;;;;4.73;3.13;;;;;;;18.15;100.00;62740.66;5054008;28;20675;-74
2022/06/27 00:03:37;;;;;;;5.97;3.00;;;;;;;18.07;100.00;62734.59;5054255;28;20205;-73
2022/06/27 00:06:04;;;;;;;3.80;2.90;;;;;;;17.14;100.00;62635.34;5054264;28;20659;-74
2022/06/27 00:08:34;;;;;;;5.07;3.20;;;;;;;18.21;100.00;62747.66;5054293;28;20201;-75
2022/06/27 00:11:03;;;;;;;3.67;2.93;;;;;;;18.21;100.00;62750.22;5054234;28;20235;-75
2022/06/27 00:13:32;;;;;;;4.43;3.03;;;;;;;18.21;100.00;62749.69;5054522;28;20652;-74
2022/06/27 00:15:59;;;;;;;4.93;4.00;;;;;;;18.16;100.00;62744.84;5053848;28;20205;-71
2022/06/27 00:18:27;;;;;;;6.97;4.60;;;;;;;17.62;100.00;62684.53;5053661;28;20204;-74
2022/06/27 00:20:55;;;;;;;5.03;4.47;;;;;;;18.21;100.00;62741.97;5053600;28;20209;-75
2022/06/27 00:23:23;;;;;;;7.50;4.43;;;;;;;18.24;100.00;62750.91;5054004;28;20200;-73
2022/06/27 00:25:51;;;;;;;7.97;4.50;;;;;;;18.14;100.00;62742.69;5054216;28;20213;-75
2022/06/27 00:28:18;;;;;;;6.50;4.73;;;;;;;18.02;100.00;62727.16;5054265;28;20224;-74
2022/06/27 00:30:47;;;;;;;5.47;4.80;;;;;;;17.73;100.00;62695.84;5053970;28;20200;-74
2022/06/27 00:33:14;;;;;;;9.37;5.03;;;;;;;17.04;100.00;62627.13;5053928;28;20201;-74
2022/06/27 00:35:41;;;;;;;9.47;5.33;;;;;;;17.81;100.00;62706.53;5052612;28;20262;-74
2022/06/27 00:38:09;;;;;;;6.97;5.33;;;;;;;17.86;100.00;62711.91;5053651;28;20205;-75
2022/06/27 00:40:37;;;;;;;8.67;5.30;;;;;;;17.73;100.00;62698.97;5053174;28;20574;-75
2022/06/27 00:43:04;;;;;;;8.67;5.23;;;;;;;17.89;100.00;62717.75;5053575;28;20245;-73
2022/06/27 00:45:32;;;;;;;7.60;5.33;;;;;;;17.81;100.00;62704.47;5054011;28;20622;-75
2022/06/27 00:48:01;;;;;;;6.70;4.77;;;;;;;17.52;100.00;62673.75;5052403;28;20690;-76
2022/06/27 00:50:32;;;;;;;5.40;4.80;;;;;;;17.65;100.00;62687.78;5052299;28;20232;-74
2022/06/27 00:52:59;;;;;;;6.90;4.83;;;;;;;17.73;100.00;62695.34;5053573;28;20229;-73
2022/06/27 00:55:30;;;;;;;8.00;5.10;;;;;;;17.66;100.00;62690.88;5053828;28;20652;-75
2022/06/27 00:57:57;;;;;;;7.80;5.33;;;;;;;17.73;100.00;62696.41;5053521;28;20216;-74
2022/06/27 01:00:24;;;;;;;6.03;5.37;;;;;;;17.67;100.00;62689.94;5053206;28;20198;-74
2022/06/27 01:02:53;;;;;;;7.53;4.80;;;;;;;17.86;100.00;62709.88;5053311;28;20197;-75
2022/06/27 01:05:22;;;;;;;8.93;4.80;;;;;;;17.87;100.00;62713.00;5053079;28;20675;-75
2022/06/27 01:07:50;;;;;;;7.77;4.67;;;;;;;17.04;100.00;62624.56;5053271;28;20197;-75
2022/06/27 01:10:17;;;;;;;8.30;4.90;;;;;;;17.89;100.00;62713.13;5053113;28;20227;-73
2022/06/27 01:12:47;;;;;;;7.10;4.80;;;;;;;17.86;100.00;62709.34;5052928;28;20757;-75
2022/06/27 01:15:16;;;;;;;10.23;5.37;;;;;;;17.97;100.00;62721.22;5053115;28;20201;-73
2022/06/27 01:17:43;;;;;;;8.77;5.20;;;;;;;17.91;100.00;62712.69;5051943;28;20205;-75
2022/06/27 01:20:11;;;;;;;8.63;5.03;;;;;;;17.75;100.00;62698.00;5049365;28;20201;-74
2022/06/27 01:22:40;;;;;;;7.63;5.23;;;;;;;18.01;100.00;62730.69;5054267;28;20209;-75
2022/06/27 01:25:08;;;;;;;8.30;5.17;;;;;;;17.99;100.00;62729.06;5038361;28;20221;-74
2022/06/27 01:27:35;;;;;;;8.10;5.70;;;;;;;17.34;100.00;62656.91;5053283;28;20232;-73
2022/06/27 01:30:03;;;;;;;7.37;5.27;;;;;;;17.85;100.00;62713.44;5065210;28;20279;-75
2022/06/27 01:32:31;;;;;;;8.63;5.53;;;;;;;17.82;100.00;62710.19;5072672;28;20623;-74
2022/06/27 01:34:58;;;;;;;7.53;5.30;;;;;;;17.73;100.00;62695.34;5073097;28;20200;-73
2022/06/27 01:37:26;;;;;;;5.37;4.73;;;;;;;17.62;100.00;62684.53;5046418;28;20625;-75
2022/06/27 01:39:56;;;;;;;7.30;4.83;;;;;;;17.48;100.00;62672.00;5048219;28;20212;-74
2022/06/27 01:42:24;;;;;;;5.40;4.53;;;;;;;17.48;100.00;62669.41;5052740;28;20302;-73
2022/06/27 01:44:50;;;;;;;6.40;5.03;;;;;;;17.44;100.00;62667.69;5052214;28;20213;-76
2022/06/27 01:47:17;;;;;;;6.67;5.03;;;;;;;17.51;100.00;62672.66;5052424;28;20211;-75
2022/06/27 01:49:44;;;;;;;7.10;5.00;;;;;;;17.44;100.00;62665.09;5052301;28;20223;-74
2022/06/27 01:52:14;;;;;;;6.83;4.63;;;;;;;17.34;100.00;62651.22;5051946;28;20239;-76
2022/06/27 01:54:41;;;;;;;7.97;5.07;;;;;;;17.37;100.00;62657.56;5058124;28;20200;-73
2022/06/27 01:57:10;;;;;;;12.43;4.83;;;;;;;17.25;100.00;62649.22;5072462;28;20207;-74
2022/06/27 01:59:38;;;;;;;10.20;5.00;;;;;;;17.10;100.00;62633.59;5072093;28;20652;-75
2022/06/27 02:02:06;;;;;;;6.83;5.00;;;;;;;17.27;100.00;62646.22;5072094;28;20204;-73
2022/06/27 02:04:35;;;;;;;6.13;4.80;;;;;;;17.29;100.00;62651.50;5071854;28;20215;-75
2022/06/27 02:07:03;;;;;;;6.90;4.90;;;;;;;17.08;100.00;62628.88;5072306;28;20207;-74
2022/06/27 02:09:31;;;;;;;7.63;4.83;;;;;;;17.23;100.00;62645.03;5071929;28;20204;-74
2022/06/27 02:12:18;;;;;;;7.90;4.57;;;;;;;17.38;100.00;62661.22;5071401;28;20609;-75
2022/06/27 02:14:47;;;;;;;10.13;5.03;;;;;;;17.41;100.00;62661.88;5071636;28;20232;-74
2022/06/27 02:17:14;;;;;;;9.77;5.27;;;;;;;17.47;100.00;62673.47;5071840;28;20204;-74
2022/06/27 02:19:42;;;;;;;17.30;5.80;;;;;;;17.34;100.00;62654.31;5071536;28;20207;-75
2022/06/27 02:22:10;;;;;;;8.57;5.27;;;;;;;17.41;100.00;62661.31;5072061;28;20585;-75
2022/06/27 02:24:38;;;;;;;5.90;4.27;;;;;;;17.33;100.00;62653.22;5071906;28;20233;-75
2022/06/27 02:27:06;;;;;;;7.07;4.33;;;;;;;16.53;100.00;62572.16;5064258;28;20233;-75
2022/06/27 02:29:34;;;;;;;4.87;3.83;;;;;;;17.15;100.00;62636.41;5042052;28;20233;-76
2022/06/27 02:32:04;;;;;;;5.30;4.07;;;;;;;17.32;100.00;62651.63;5047842;28;20236;-74
2022/06/27 02:34:33;;;;;;;9.03;4.43;;;;;;;17.32;100.00;62652.16;5051800;28;20216;-74
2022/06/27 02:37:02;;;;;;;7.70;4.40;;;;;;;17.24;100.00;62646.13;5051423;28;20742;-74
2022/06/27 02:39:33;;;;;;;4.77;4.17;;;;;;;17.19;100.00;62638.13;5051571;28;20219;-75
2022/06/27 02:42:02;;;;;;;8.03;4.70;;;;;;;17.01;100.00;62618.72;5050648;28;20208;-74
2022/06/27 02:44:32;;;;;;;8.40;4.73;;;;;;;17.15;100.00;62633.81;5051597;28;20546;-74
2022/06/27 02:47:03;;;;;;;10.83;4.97;;;;;;;17.12;100.00;62635.22;5051515;28;20254;-75
2022/06/27 02:49:31;;;;;;;5.40;4.90;;;;;;;17.07;100.00;62625.19;5051507;28;20384;-72
2022/06/27 02:52:11;;;;;;;7.77;4.93;;;;;;;16.33;100.00;62550.56;5051240;28;20236;-75
2022/06/27 02:54:42;;;;;;;6.73;4.73;;;;;;;16.90;100.00;62606.88;5051301;28;20208;-75
2022/06/27 02:57:17;;;;;;;4.73;4.23;;;;;;;16.96;100.00;62615.38;5051396;28;20258;-74
2022/06/27 02:59:46;;;;;;;8.63;4.40;;;;;;;16.94;100.00;62616.34;5052384;28;20204;-74
2022/06/27 03:02:17;;;;;;;6.77;4.10;;;;;;;17.11;100.00;62631.53;5051265;28;20212;-75
2022/06/27 03:04:45;;;;;;;17.33;5.30;;;;;;;17.05;100.00;62622.50;5051145;28;20197;-74
2022/06/27 03:07:12;;;;;;;11.00;4.97;;;;;;;16.69;100.00;62584.25;5051311;28;20212;-74
2022/06/27 03:09:39;;;;;;;11.27;5.40;;;;;;;17.04;100.00;62621.97;5051392;28;20200;-75
2022/06/27 03:12:07;;;;;;;10.30;4.90;;;;;;;17.06;100.00;62624.13;5051456;28;20605;-74
2022/06/27 03:14:34;;;;;;;8.17;4.40;;;;;;;16.40;100.00;62556.06;5051078;28;20702;-76
2022/06/27 03:17:05;;;;;;;8.23;4.70;;;;;;;17.17;100.00;62638.00;5051416;28;20201;-75
2022/06/27 03:19:33;;;;;;;11.63;4.70;;;;;;;17.12;100.00;62630.06;5050948;28;20201;-73
2022/06/27 03:22:00;;;;;;;7.63;5.00;;;;;;;16.51;100.00;62567.41;5051559;28;20208;-75
2022/06/27 03:24:27;;;;;;;8.90;4.90;;;;;;;17.15;100.00;62636.41;5050907;28;20201;-74
2022/06/27 03:26:54;;;;;;;8.07;5.50;;;;;;;17.23;100.00;62641.91;5051495;28;20196;-74
2022/06/27 03:29:21;;;;;;;11.87;5.77;;;;;;;17.25;100.00;62644.59;5060860;28;20215;-77
2022/06/27 03:31:48;;;;;;;9.20;5.30;;;;;;;17.29;100.00;62651.50;5070663;28;20204;-73
2022/06/27 03:34:17;;;;;;;12.87;5.53;;;;;;;17.33;100.00;62650.66;5071013;28;20197;-73
2022/06/27 03:36:45;;;;;;;12.07;5.30;;;;;;;17.30;100.00;62655.16;5071008;28;20201;-74
2022/06/27 03:39:13;;;;;;;18.23;6.73;;;;;;;17.19;100.00;62637.59;5071163;28;20261;-74
2022/06/27 03:41:40;;;;;;;11.73;6.30;;;;;;;17.27;100.00;62651.38;5065346;28;20209;-74
2022/06/27 03:44:08;;;;;;;13.40;7.13;;;;;;;16.87;100.00;62603.66;5039613;28;20285;-75
2022/06/27 03:46:36;;;;;;;7.07;6.37;;;;;;;17.11;100.00;62629.50;5050564;28;20227;-74
2022/06/27 03:51:48;;;;;;;8.90;6.47;;;;;;;17.34;100.00;62656.91;5050571;28;20363;-76
2022/06/27 03:54:17;;;;;;;10.90;6.90;;;;;;;17.24;100.00;62643.53;5052745;28;20246;-75
2022/06/27 03:56:46;;;;;;;14.73;9.03;;;;;;;16.60;100.00;62574.56;5054489;28;20686;-74
2022/06/27 03:59:14;;;;;;;10.23;7.83;;;;;;;17.57;100.00;62679.13;5054751;28;20197;-75
2022/06/27 04:01:45;;;;;;;12.10;6.90;;;;;;;17.62;100.00;62689.69;5054754;28;20304;-75
2022/06/27 04:04:18;;;;;;;15.43;6.63;;;;;;;17.86;100.00;62711.91;5054489;28;20259;-75
2022/06/27 04:06:50;;;;;;;11.17;7.13;;;;;;;18.01;100.00;62725.53;5054423;28;20590;-74
2022/06/27 04:09:18;;;;;;;12.37;7.23;;;;;;;18.14;100.00;62739.56;5054086;28;20216;-75
2022/06/27 04:11:47;;;;;;;12.47;6.60;;;;;;;18.16;100.00;62739.13;5054415;28;20211;-75
2022/06/27 04:14:15;;;;;;;16.13;7.30;;;;;;;18.14;100.00;62736.97;5054532;28;20232;-76
2022/06/27 04:16:43;;;;;;;8.63;5.33;;;;;;;18.21;100.00;62747.13;5040585;28;20205;-77
2022/06/27 04:19:12;;;;;;;9.10;5.57;;;;;;;18.37;100.00;62764.38;5054204;28;20204;-73
2022/06/27 04:21:39;;;;;;;10.07;5.90;;;;;;;18.33;100.00;62762.66;5053993;28;20224;-74
2022/06/27 04:24:12;;;;;;;9.53;5.80;;;;;;;18.61;100.00;62792.91;5053938;28;20197;-75
2022/06/27 04:26:40;;;;;;;8.67;5.27;;;;;;;18.48;100.00;62778.84;5054708;28;20212;-75
2022/06/27 04:29:09;;;;;;;8.60;5.13;;;;;;;18.53;100.00;62784.25;5061793;28;20585;-74
2022/06/27 04:31:36;;;;;;;9.53;5.40;;;;;;;18.99;100.00;62833.94;5052996;28;20201;-74
2022/06/27 04:34:04;;;;;;;10.73;5.20;;;;;;;18.76;100.00;62806.50;5050333;28;20228;-73
2022/06/27 04:36:32;;;;;;;24.30;7.10;;;;;;;19.09;100.00;62844.72;5053901;28;20270;-74
2022/06/27 04:38:59;;;;;;;17.27;6.63;;;;;;;19.09;100.00;62839.56;5053559;28;20570;-74
2022/06/27 04:41:28;;;;;;;17.33;5.90;;;;;;;19.22;100.00;62856.19;5053862;28;20201;-74
2022/06/27 04:43:55;;;;;;;13.07;5.40;;;;;;;19.23;100.00;62861.91;5055914;28;20287;-74
2022/06/27 04:46:24;;;;;;;10.13;5.83;;;;;;;18.94;100.00;62823.34;5053758;28;20590;-74
2022/06/27 04:48:51;;;;;;;11.10;5.60;;;;;;;19.52;100.00;62887.53;5053628;28;20205;-74
2022/06/27 04:51:18;;;;;;;16.97;5.87;;;;;;;19.83;100.00;62921.03;5053573;28;20227;-74
2022/06/27 04:53:45;;;;;;;15.00;5.67;;;;;;;19.94;100.00;62933.47;5053491;28;20235;-73
2022/06/27 04:56:12;;;;;;;10.80;5.70;;;;;;;20.23;100.00;62964.31;5053518;28;20232;-74
2022/06/27 04:58:41;;;;;;;10.53;5.47;;;;;;;20.31;100.00;62972.41;5053402;28;20201;-74
2022/06/27 05:01:08;;;;;;;10.00;5.70;;;;;;;20.12;100.00;62952.41;5053356;28;20208;-74
2022/06/27 05:03:35;;;;;;;12.37;5.87;;;;;;;20.18;100.00;62956.81;5054209;28;20205;-75
2022/06/27 05:06:04;;;;;;;10.20;5.23;;;;;;;20.42;100.00;62984.84;5053077;28;20204;-74
2022/06/27 05:08:31;;;;;;;17.03;5.83;;;;;;;20.39;100.00;62981.59;5052588;28;20605;-76
2022/06/27 05:11:01;;;;;;;16.03;6.23;;;;;;;20.50;100.00;62992.97;5053244;28;20243;-76
2022/06/27 05:13:31;;;;;;;11.13;6.37;;;;;;;20.72;100.00;63017.31;5052925;28;20728;-76
2022/06/27 05:16:00;;;;;;;10.87;6.50;;;;;;;20.50;100.00;62993.50;5053090;28;20208;-74
2022/06/27 05:18:27;;;;;;;8.93;6.30;;;;;;;20.65;100.00;63007.13;5053659;28;20672;-74
2022/06/27 05:20:55;;;;;;;19.50;7.13;;;;;;;21.16;100.00;63063.84;5053054;28;20209;-75
2022/06/27 05:23:23;;;;;;;13.87;6.37;;;;;;;21.34;100.00;63085.91;5052968;28;20205;-74
2022/06/27 05:25:50;;;;;;;10.43;6.13;;;;;;;21.30;100.00;63079.00;5052855;28;20656;-75
2022/06/27 05:28:17;;;;;;;13.37;6.57;;;;;;;21.33;100.00;63084.84;5045890;28;20232;-75
2022/06/27 05:30:45;;;;;;;11.07;6.50;;;;;;;21.19;100.00;63067.09;5038252;28;20273;-74
2022/06/27 05:33:14;;;;;;;13.33;6.50;;;;;;;21.38;100.00;63085.59;5052618;28;20233;-77
2022/06/27 05:35:41;;;;;;;16.03;6.47;;;;;;;21.72;100.00;63124.44;5052515;28;20220;-75
2022/06/27 05:38:09;;;;;;;16.17;6.23;;;;;;;21.95;100.00;63144.19;5052932;28;20274;-75
2022/06/27 05:40:36;;;;;;;10.63;6.33;;;;;;;22.14;100.00;63169.41;5052749;28;20278;-72
2022/06/27 05:43:04;;;;;;;12.50;6.10;;;;;;;22.32;100.00;63188.91;5052567;28;20201;-74
2022/06/27 05:45:31;;;;;;;14.50;6.30;;;;;;;22.27;100.00;63184.03;5052509;28;20234;-74
2022/06/27 05:48:01;;;;;;;8.73;6.13;;;;;;;21.14;100.00;63061.66;5052424;28;20276;-75
2022/06/27 05:50:31;;;;;;;11.23;6.30;;;;;;;22.29;100.00;63191.41;5052550;28;20197;-73
2022/06/27 05:53:01;;;;;;;10.77;6.80;;;;;;;22.50;100.00;63208.94;5052513;28;20248;-74
2022/06/27 05:55:30;;;;;;;9.73;6.77;;;;;;;22.35;100.00;63195.31;5052163;28;20590;-74
2022/06/27 05:57:57;;;;;;;13.30;6.97;;;;;;;22.56;100.00;63215.47;5052252;28;20228;-75
2022/06/27 06:00:25;;;;;;;13.57;6.47;;;;;;;22.83;100.00;63241.06;5052547;28;20201;-74
2022/06/27 06:02:52;;;;;;;15.57;7.40;;;;;;;22.72;100.00;63229.16;5050993;28;20251;-74
2022/06/27 06:05:19;;;;;;;17.20;6.87;;;;;;;22.90;100.00;63251.25;5052078;28;20209;-74
2022/06/27 06:07:48;;;;;;;16.60;6.87;;;;;;;22.47;100.00;63207.75;5051972;28;20212;-75
2022/06/27 06:10:15;;;;;;;12.17;7.60;;;;;;;23.23;100.00;63287.00;5051993;28;20205;-74
2022/06/27 06:12:46;;;;;;;12.40;7.47;;;;;;;23.31;100.00;63296.25;5051831;28;20231;-74
2022/06/27 06:15:15;;;;;;;11.07;8.03;;;;;;;22.67;100.00;63227.41;5051801;28;20204;-75
2022/06/27 06:17:42;;;;;;;12.90;7.70;;;;;;;23.24;100.00;63288.09;5051854;28;20208;-74
2022/06/27 06:20:11;;;;;;;12.27;6.93;;;;;;;23.52;100.00;63315.88;5051565;28;20743;-74
2022/06/27 06:22:38;;;;;;;11.80;7.43;;;;;;;23.66;100.00;63333.66;5051511;28;20208;-75
2022/06/27 06:25:07;;;;;;;11.37;7.33;;;;;;;23.69;100.00;63336.91;5057956;28;20204;-74
2022/06/27 06:27:35;;;;;;;15.93;7.77;;;;;;;23.85;100.00;63354.25;5052575;28;20710;-74
2022/06/27 06:30:02;;;;;;;13.97;8.20;;;;;;;23.93;100.00;63362.41;5066828;28;20208;-74
2022/06/27 06:32:31;;;;;;;12.40;8.17;;;;;;;23.52;100.00;63318.47;5071979;28;20203;-74
2022/06/27 06:34:59;;;;;;;12.90;7.50;;;;;;;23.67;100.00;63334.75;5071994;28;20201;-72
2022/06/27 06:37:26;;;;;;;13.60;7.43;;;;;;;23.53;100.00;63319.56;5043971;28;20200;-73
2022/06/27 06:39:53;;;;;;;9.93;7.23;;;;;;;23.69;100.00;63336.38;5071903;28;20228;-73
2022/06/27 06:42:22;;;;;;;9.23;7.73;;;;;;;24.10;100.00;63381.41;5071637;28;20203;-73
2022/06/27 06:44:52;;;;;;;15.93;7.97;;;;;;;24.21;100.00;63395.94;5071379;28;20410;-74
2022/06/27 06:47:19;;;;;;;16.70;8.07;;;;;;;24.64;100.00;63438.94;5068225;28;20577;-74
2022/06/27 06:49:46;;;;;;;14.67;7.97;;;;;;;24.82;100.00;63458.50;5060934;28;20200;-74
2022/06/27 06:52:15;;;;;;;10.20;8.37;;;;;;;24.67;100.00;63442.19;5071198;28;20224;-73
2022/06/27 06:54:45;;;;;;;10.80;7.83;;;;;;;25.08;100.00;63486.72;5071327;28;20784;-75
2022/06/27 06:57:11;;;;;;;8.40;6.47;;;;;;;25.13;100.00;63492.16;5071452;28;20212;-75
2022/06/27 06:59:40;;;;;;;19.17;7.70;;;;;;;25.38;100.00;63516.69;5071407;28;20284;-74
2022/06/27 07:02:08;;;;;;;15.03;6.40;;;;;;;25.68;100.00;63549.31;5071325;28;20207;-74
2022/06/27 07:04:36;;;;;;;10.77;6.60;;;;;;;25.64;100.00;63547.56;5071098;28;20636;-75
2022/06/27 07:07:05;;;;;;;15.47;7.13;;;;;;;25.32;100.00;63512.78;5075070;28;20295;-74
2022/06/27 07:09:31;;;;;;;12.63;6.20;;;;;;;26.02;100.00;63585.16;5071401;28;20224;-73
2022/06/27 07:12:00;;;;;;;17.70;6.37;;;;;;;25.98;100.00;63583.44;5071386;28;20211;-75
2022/06/27 07:14:30;;;;;;;9.83;6.43;;;;;;;25.78;100.00;63562.78;5070968;28;20313;-74
2022/06/27 07:16:58;;;;;;;5.17;4.70;;;;;;;25.58;100.00;63541.03;5070909;28;20206;-72
2022/06/27 07:19:26;;;;;;;11.03;5.73;;;;;;;25.63;100.00;63541.28;5070769;28;20221;-73
2022/06/27 07:21:54;;;;;;;9.73;5.40;;;;;;;25.60;100.00;63545.28;5071048;28;20223;-74
2022/06/27 07:24:21;;;;;;;10.40;5.67;;;;;;;25.86;100.00;63571.47;5071108;28;20633;-74
2022/06/27 07:26:49;;;;;;;8.70;5.70;;;;;;;25.84;100.00;63568.75;5069081;28;20202;-74
2022/06/27 07:29:16;;;;;;;10.87;5.97;;;;;;;25.95;100.00;63578.66;5061673;28;20210;-75
2022/06/27 07:31:45;;;;;;;12.37;5.60;;;;;;;25.98;100.00;63583.44;5074638;28;20261;-73
2022/06/27 07:34:17;;;;;;;7.03;4.77;;;;;;;25.89;100.00;63574.19;5075069;28;20227;-74
2022/06/27 07:36:44;;;;;;;8.40;5.57;;;;;;;25.81;100.00;63563.44;5074980;28;20223;-74
2022/06/27 07:39:12;;;;;;;6.30;5.13;;;;;;;25.81;100.00;63568.09;5046203;28;20208;-76
2022/06/27 07:41:40;;;;;;;9.93;5.43;;;;;;;26.32;100.00;63620.94;5054866;28;20661;-74
2022/06/27 07:44:09;;;;;;;7.30;4.40;;;;;;;25.88;100.00;63571.03;5054949;28;20675;-74
2022/06/27 07:46:38;;;;;;;7.90;5.00;;;;;;;26.40;100.00;63629.09;5054681;28;20224;-74
2022/06/27 07:49:06;;;;;;;7.77;4.40;;;;;;;26.61;100.00;63651.94;5055112;28;20201;-75
2022/06/27 07:51:35;;;;;;;6.43;4.87;;;;;;;26.85;100.00;63678.03;5054562;28;20730;-74
2022/06/27 07:54:03;;;;;;;5.37;4.30;;;;;;;27.08;100.00;63703.06;5054535;28;20229;-74
2022/06/27 07:56:31;;;;;;;8.60;4.87;;;;;;;26.98;100.00;63689.56;5054391;28;20196;-74
2022/06/27 07:58:59;;;;;;;5.80;3.97;;;;;;;27.45;100.00;63740.16;5054679;28;20205;-74
2022/06/27 08:01:28;;;;;;;12.87;4.93;;;;;;;27.34;100.00;63731.38;5054585;28;20232;-73
2022/06/27 08:03:55;;;;;;;4.80;4.00;;;;;;;26.99;100.00;63695.88;5054667;28;20211;-74
2022/06/27 08:06:24;;;;;;;7.50;3.90;;;;;;;27.22;100.00;63717.75;5056465;28;20209;-73
2022/06/27 08:08:54;;;;;;;28.13;5.87;;;;;;;27.28;100.00;63724.28;5054615;28;20205;-75
2022/06/27 08:11:23;;;;;;;9.57;4.37;;;;;;;27.55;100.00;63754.22;5054349;28;20207;-73
2022/06/27 08:13:52;;;;;;;6.33;3.83;;;;;;;27.40;100.00;63737.91;5054118;28;20738;-74
2022/06/27 08:16:21;;;;;;;7.93;4.50;;;;;;;27.40;100.00;63742.59;5054159;28;20205;-74
2022/06/27 08:18:50;;;;;;;6.57;4.43;;;;;;;27.15;100.00;63715.91;5054261;28;20223;-75
2022/06/27 08:21:21;;;;;;;5.00;4.50;;;;;;;27.34;100.00;63730.84;5054050;28;20201;-73
2022/06/27 08:23:51;;;;;;;5.57;4.20;;;;;;;27.50;100.00;63748.78;5054015;28;20232;-75
2022/06/27 08:26:21;;;;;;;7.07;4.40;;;;;;;27.63;100.00;63762.38;5054252;28;20343;-75
2022/06/27 08:28:49;;;;;;;7.30;4.40;;;;;;;27.82;100.00;63779.91;5059920;28;20281;-75
2022/06/27 08:31:17;;;;;;;6.97;4.90;;;;;;;27.09;100.00;63704.16;5073866;28;20204;-76
2022/06/27 08:33:45;;;;;;;8.43;4.13;;;;;;;27.09;100.00;63703.59;5073638;28;20220;-74
2022/06/27 08:36:14;;;;;;;6.00;4.17;;;;;;;26.87;100.00;63680.22;5045620;28;20211;-73
2022/06/27 08:38:42;;;;;;;9.57;4.50;;;;;;;27.38;100.00;63733.13;5045781;28;20291;-74
2022/06/27 08:41:11;;;;;;;5.13;4.43;;;;;;;27.58;100.00;63760.13;5052347;28;20287;-75
2022/06/27 08:43:40;;;;;;;10.10;4.70;;;;;;;27.84;100.00;63785.25;5053716;28;20200;-73
2022/06/27 08:46:09;;;;;;;6.07;3.63;;;;;;;28.19;100.00;63825.44;5053590;28;20684;-74
2022/06/27 08:48:37;;;;;;;5.27;3.63;;;;;;;28.38;100.00;63844.06;5053299;28;20735;-75
2022/06/27 08:51:05;;;;;;;7.47;4.20;;;;;;;28.26;100.00;63827.81;5053409;28;20220;-73
2022/06/27 08:53:34;;;;;;;4.57;3.83;;;;;;;28.34;100.00;63839.16;5053371;28;20224;-74
2022/06/27 08:56:03;;;;;;;9.13;3.77;;;;;;;28.70;100.00;63875.19;5053379;28;20289;-74
2022/06/27 08:58:32;;;;;;;6.70;4.30;;;;;;;28.06;100.00;63806.03;5053230;28;20200;-76
2022/06/27 09:01:03;;;;;;;5.50;4.00;;;;;;;28.95;100.00;63903.00;5053109;28;20236;-74
2022/06/27 09:03:32;;;;;;;5.87;4.00;;;;;;;29.15;100.00;63927.44;5045022;28;20213;-76
2022/06/27 09:06:01;;;;;;;5.47;4.40;;;;;;;29.58;100.00;63970.59;5047807;28;20198;-74
2022/06/27 09:08:33;;;;;;;7.07;4.10;;;;;;;29.44;100.00;63957.94;5056231;28;20690;-74
2022/06/27 09:11:01;;;;;;;9.53;4.77;;;;;;;29.88;100.00;64003.31;5053386;28;20224;-74
2022/06/27 09:13:30;;;;;;;6.40;4.30;;;;;;;30.13;100.00;64027.94;5053081;28;20204;-74
2022/06/27 09:15:59;;;;;;;8.10;3.90;;;;;;;30.32;100.00;64053.94;5053336;28;20303;-74
2022/06/27 09:18:29;;;;;;;11.83;4.13;;;;;;;29.96;100.00;64015.19;5053066;28;20213;-75
2022/06/27 09:20:59;;;;;;;9.20;4.17;;;;;;;30.18;100.00;64041.28;5053585;28;20256;-74
2022/06/27 09:23:40;;;;;;;6.63;3.70;;;;;;;30.66;100.00;64096.28;5053022;28;20554;-76
2022/06/27 09:26:13;;;;;;;5.03;3.80;;;;;;;30.77;100.00;64097.75;5053266;28;20218;-74
2022/06/27 09:28:43;;;;;;;6.90;4.10;;;;;;;30.02;100.00;64021.19;5057562;28;20229;-75
2022/06/27 09:31:12;;;;;;;6.70;3.90;;;;;;;29.57;100.00;63966.84;5072879;28;20657;-75
2022/06/27 09:33:41;;;;;;;5.97;3.77;;;;;;;28.70;100.00;63878.38;5072437;28;20205;-74
2022/06/27 09:36:14;;;;;;;8.00;4.03;;;;;;;28.44;100.00;63850.03;5072774;28;20196;-74
2022/06/27 09:38:44;;;;;;;5.27;3.90;;;;;;;28.65;100.00;63872.38;5072538;28;20727;-74
2022/06/27 09:41:13;;;;;;;7.63;3.43;;;;;;;29.28;100.00;63940.50;5063326;28;20201;-75
2022/06/27 09:43:46;;;;;;;35.67;6.13;;;;;;;29.71;100.00;63987.91;5052263;28;20686;-74
2022/06/27 09:46:15;;;;;;;5.10;3.87;;;;;;;29.37;100.00;63950.31;5053586;28;20202;-75
2022/06/27 09:48:47;;;;;;;6.93;3.63;;;;;;;29.48;100.00;63957.06;5052400;28;20291;-75
2022/06/27 09:51:17;;;;;;;47.37;7.17;;;;;;;29.07;100.00;63912.91;5051692;28;20226;-75
2022/06/27 09:53:50;;;;;;;10.30;4.20;;;;;;;29.13;100.00;63925.22;5052135;28;20262;-75
2022/06/27 09:56:19;;;;;;;13.07;4.33;;;;;;;29.00;100.00;63911.06;5052158;28;20204;-79
2022/06/27 09:58:47;;;;;;;12.10;4.40;;;;;;;28.81;100.00;63887.75;5052285;28;20201;-75
2022/06/27 10:01:16;;;;;;;8.13;4.10;;;;;;;28.66;100.00;63873.47;5052040;28;20611;-73
2022/06/27 10:03:45;;;;;;;7.03;3.90;;;;;;;28.76;100.00;63879.66;5052117;28;20205;-76
2022/06/27 10:06:14;;;;;;;5.57;3.70;;;;;;;29.01;100.00;63911.59;5051867;28;20204;-75
2022/06/27 10:08:48;;;;;;;5.67;3.90;;;;;;;29.62;100.00;63974.94;5052238;28;20206;-74
2022/06/27 10:11:16;;;;;;;4.50;4.00;;;;;;;29.37;100.00;63950.31;5051990;28;20235;-75
2022/06/27 10:13:44;;;;;;;8.20;4.10;;;;;;;29.45;100.00;63954.31;5051868;28;20561;-73
2022/06/27 10:16:13;;;;;;;4.33;3.90;;;;;;;29.14;100.00;63925.78;5052303;28;20232;-74
2022/06/27 10:19:04;;;;;;;6.40;3.83;;;;;;;29.82;100.00;64002.03;5052057;28;20209;-74
2022/06/27 10:21:32;;;;;;;7.40;4.20;;;;;;;30.63;100.00;64085.09;5051960;28;20205;-74
2022/06/27 10:24:29;;;;;;;7.73;3.90;;;;;;;30.31;100.00;64049.66;5051661;28;20210;-75
2022/06/27 10:26:58;;;;;;;4.53;3.43;;;;;;;29.57;100.00;63974.72;5052214;28;20653;-74
2022/06/27 10:29:44;;;;;;;5.80;3.70;;;;;;;29.37;100.00;63950.31;5061980;28;20661;-75
2022/06/27 10:32:44;;;;;;;3.93;3.53;;;;;;;29.12;100.00;63924.13;5071647;28;20204;-74
2022/06/27 10:35:29;;;;;;;4.40;3.80;;;;;;;29.60;100.00;63975.38;5071449;28;20290;-74
2022/06/27 10:37:56;;;;;;;7.50;3.60;;;;;;;30.20;100.00;64040.81;5070678;28;20269;-75
2022/06/27 10:40:52;;;;;;;6.83;3.57;;;;;;;30.61;100.00;64087.63;5071533;28;20684;-75
2022/06/27 10:43:46;;;;;;;4.67;3.73;;;;;;;30.73;100.00;64098.66;5071904;28;20220;-74
2022/06/27 10:46:52;;;;;;;9.40;4.23;;;;;;;29.90;100.00;64008.13;5071927;28;20205;-74
2022/06/27 10:49:27;;;;;;;4.70;3.67;;;;;;;28.91;100.00;63898.63;5042703;28;20202;-74
2022/06/27 10:52:23;;;;;;;6.17;3.80;;;;;;;28.87;100.00;63891.66;5051724;28;20661;-75
2022/06/27 10:54:53;;;;;;;4.23;3.40;;;;;;;28.39;100.00;63844.59;5050914;28;20307;-74
2022/06/27 10:57:42;;;;;;;4.67;3.70;;;;;;;29.09;100.00;63920.88;5052065;28;20236;-73
2022/06/27 11:00:46;;;;;;;5.30;3.57;;;;;;;29.08;100.00;63919.78;5051502;28;20204;-75
2022/06/27 11:03:22;;;;;;;3.70;3.40;;;;;;;30.03;100.00;64022.28;5053787;28;20208;-74
2022/06/27 11:06:00;;;;;;;5.60;3.50;;;;;;;30.07;100.00;64026.63;5051498;28;20570;-75
2022/06/27 11:08:33;;;;;;;5.40;3.70;;;;;;;30.35;100.00;64056.66;5051525;28;20676;-74
2022/06/27 11:11:04;;;;;;;3.80;3.50;;;;;;;30.49;100.00;64069.28;5051523;28;20293;-76
2022/06/27 11:13:44;;;;;;;4.93;3.80;;;;;;;30.91;100.00;64114.59;5051316;28;20205;-74
2022/06/27 11:16:16;;;;;;;4.93;3.90;;;;;;;31.27;100.00;64156.53;5050862;28;20659;-74
2022/06/27 11:18:46;;;;;;;7.00;3.70;;;;;;;30.33;100.00;64052.38;5051209;28;20212;-73
2022/06/27 11:21:16;;;;;;;6.03;3.97;;;;;;;30.06;100.00;64025.00;5051463;28;20199;-75
2022/06/27 11:23:56;;;;;;;5.27;3.57;;;;;;;30.31;100.00;64052.28;5051340;28;20305;-75
2022/06/27 11:26:24;;;;;;;4.83;3.33;;;;;;;30.34;100.00;64060.81;5053409;28;20198;-75
2022/06/27 11:31:59;;;;;;;4.17;3.77;;;;;;;29.68;100.00;63984.09;5071024;28;20725;-75
2022/06/27 11:34:28;;;;;;;3.80;3.40;;;;;;;29.32;100.00;63939.63;5071253;28;20252;-76
2022/06/27 11:36:56;;;;;;;6.23;3.40;;;;;;;29.50;100.00;63959.75;5070872;28;20204;-75
2022/06/27 11:39:26;;;;;;;12.67;3.73;;;;;;;29.59;100.00;63974.28;5070964;28;20201;-73